sensor_id;sensor_type;location;lat;lon;timestamp;temperature;humidity
9808;DHT22;4943;52.550;13.462;2023-06-22T00:00:35;24.20;99.80
9808;DHT22;4943;52.550;13.462;2023-06-22T00:03:03;24.20;99.80
9808;DHT22;4943;52.550;13.462;2023-06-22T00:05:33;24.10;99.80
9808;DHT22;4943;52.550;13.462;2023-06-22T00:08:03;24.10;99.90
9808;DHT22;4943;52.550;13.462;2023-06-22T00:10:32;24.00;99.90
9808;DHT22;4943;52.550;13.462;2023-06-22T00:13:00;24.00;99.90
9808;DHT22;4943;52.550;13.462;2023-06-22T00:15:28;24.00;99.90
9808;DHT22;4943;52.550;13.462;2023-06-22T00:17:56;23.90;99.90
9808;DHT22;4943;52.550;13.462;2023-06-22T00:20:26;23.90;99.90
9808;DHT22;4943;52.550;13.462;2023-06-22T00:22:59;23.80;99.90
9808;DHT22;4943;52.550;13.462;2023-06-22T00:25:27;23.80;99.90
9808;DHT22;4943;52.550;13.462;2023-06-22T00:27:55;23.80;99.90
9808;DHT22;4943;52.550;13.462;2023-06-22T00:30:23;23.80;99.90
9808;DHT22;4943;52.550;13.462;2023-06-22T00:32:52;23.70;99.90
9808;DHT22;4943;52.550;13.462;2023-06-22T00:35:21;23.70;99.90
9808;DHT22;4943;52.550;13.462;2023-06-22T00:37:49;23.70;99.90
9808;DHT22;4943;52.550;13.462;2023-06-22T00:40:20;23.60;99.90
9808;DHT22;4943;52.550;13.462;2023-06-22T00:42:48;23.60;99.90
9808;DHT22;4943;52.550;13.462;2023-06-22T00:45:16;23.60;99.90
9808;DHT22;4943;52.550;13.462;2023-06-22T00:47:45;23.60;99.90
9808;DHT22;4943;52.550;13.462;2023-06-22T00:50:18;23.50;99.90
9808;DHT22;4943;52.550;13.462;2023-06-22T00:52:50;23.50;99.90
9808;DHT22;4943;52.550;13.462;2023-06-22T00:55:20;23.50;99.90
9808;DHT22;4943;52.550;13.462;2023-06-22T00:57:50;23.40;99.90
9808;DHT22;4943;52.550;13.462;2023-06-22T01:00:24;23.40;99.90
9808;DHT22;4943;52.550;13.462;2023-06-22T01:02:53;23.40;99.90
9808;DHT22;4943;52.550;13.462;2023-06-22T01:05:22;23.30;99.90
9808;DHT22;4943;52.550;13.462;2023-06-22T01:08:07;23.30;99.90
9808;DHT22;4943;52.550;13.462;2023-06-22T01:10:41;23.30;99.90
9808;DHT22;4943;52.550;13.462;2023-06-22T01:13:18;23.30;99.90
9808;DHT22;4943;52.550;13.462;2023-06-22T01:15:53;23.30;99.90
9808;DHT22;4943;52.550;13.462;2023-06-22T01:18:24;23.20;99.90
9808;DHT22;4943;52.550;13.462;2023-06-22T01:20:54;23.20;99.90
9808;DHT22;4943;52.550;13.462;2023-06-22T01:23:29;23.20;99.90
9808;DHT22;4943;52.550;13.462;2023-06-22T01:26:08;23.20;99.90
9808;DHT22;4943;52.550;13.462;2023-06-22T01:28:47;23.10;99.90
9808;DHT22;4943;52.550;13.462;2023-06-22T01:31:18;23.10;99.90
9808;DHT22;4943;52.550;13.462;2023-06-22T01:33:50;23.00;99.90
9808;DHT22;4943;52.550;13.462;2023-06-22T01:36:20;23.00;99.90
9808;DHT22;4943;52.550;13.462;2023-06-22T01:38:49;23.00;99.90
9808;DHT22;4943;52.550;13.462;2023-06-22T01:41:18;23.00;99.90
9808;DHT22;4943;52.550;13.462;2023-06-22T01:43:48;23.00;99.90
9808;DHT22;4943;52.550;13.462;2023-06-22T01:46:18;23.00;99.90
9808;DHT22;4943;52.550;13.462;2023-06-22T01:48:47;23.00;99.90
9808;DHT22;4943;52.550;13.462;2023-06-22T01:51:15;22.90;99.90
9808;DHT22;4943;52.550;13.462;2023-06-22T01:53:43;22.90;99.90
9808;DHT22;4943;52.550;13.462;2023-06-22T01:56:12;22.90;99.90
9808;DHT22;4943;52.550;13.462;2023-06-22T01:58:45;22.90;99.90
9808;DHT22;4943;52.550;13.462;2023-06-22T02:01:20;22.80;99.90
9808;DHT22;4943;52.550;13.462;2023-06-22T02:03:55;22.80;99.90
9808;DHT22;4943;52.550;13.462;2023-06-22T02:06:29;22.80;99.90
9808;DHT22;4943;52.550;13.462;2023-06-22T02:09:05;22.70;99.90
9808;DHT22;4943;52.550;13.462;2023-06-22T02:11:35;22.70;99.90
9808;DHT22;4943;52.550;13.462;2023-06-22T02:14:05;22.70;99.90
9808;DHT22;4943;52.550;13.462;2023-06-22T02:16:36;22.70;99.90
9808;DHT22;4943;52.550;13.462;2023-06-22T02:19:04;22.70;99.90
9808;DHT22;4943;52.550;13.462;2023-06-22T02:21:34;22.60;99.90
9808;DHT22;4943;52.550;13.462;2023-06-22T02:24:03;22.60;99.90
9808;DHT22;4943;52.550;13.462;2023-06-22T02:26:31;22.60;99.90
9808;DHT22;4943;52.550;13.462;2023-06-22T02:29:01;22.60;99.90
9808;DHT22;4943;52.550;13.462;2023-06-22T02:31:29;22.60;99.90
9808;DHT22;4943;52.550;13.462;2023-06-22T02:33:59;22.60;99.90
9808;DHT22;4943;52.550;13.462;2023-06-22T02:36:27;22.60;99.90
9808;DHT22;4943;52.550;13.462;2023-06-22T02:38:58;22.60;99.90
9808;DHT22;4943;52.550;13.462;2023-06-22T02:41:28;22.60;99.90
9808;DHT22;4943;52.550;13.462;2023-06-22T02:43:56;22.60;99.90
9808;DHT22;4943;52.550;13.462;2023-06-22T02:46:24;22.60;99.90
9808;DHT22;4943;52.550;13.462;2023-06-22T02:48:52;22.70;99.90
9808;DHT22;4943;52.550;13.462;2023-06-22T02:51:21;22.70;99.90
9808;DHT22;4943;52.550;13.462;2023-06-22T02:53:49;22.70;99.90
9808;DHT22;4943;52.550;13.462;2023-06-22T02:56:24;22.70;99.90
9808;DHT22;4943;52.550;13.462;2023-06-22T02:58:52;22.70;99.90
9808;DHT22;4943;52.550;13.462;2023-06-22T03:01:20;22.70;99.90
9808;DHT22;4943;52.550;13.462;2023-06-22T03:03:52;22.80;99.90
9808;DHT22;4943;52.550;13.462;2023-06-22T03:06:22;22.80;99.90
9808;DHT22;4943;52.550;13.462;2023-06-22T03:08:58;22.80;99.90
9808;DHT22;4943;52.550;13.462;2023-06-22T03:11:27;22.70;99.90
9808;DHT22;4943;52.550;13.462;2023-06-22T03:13:55;22.80;99.90
9808;DHT22;4943;52.550;13.462;2023-06-22T03:16:23;22.80;99.90
9808;DHT22;4943;52.550;13.462;2023-06-22T03:18:51;22.80;99.90
9808;DHT22;4943;52.550;13.462;2023-06-22T03:21:22;22.90;99.90
9808;DHT22;4943;52.550;13.462;2023-06-22T03:23:50;23.10;99.90
9808;DHT22;4943;52.550;13.462;2023-06-22T03:26:19;23.30;99.90
9808;DHT22;4943;52.550;13.462;2023-06-22T03:28:47;23.40;99.90
9808;DHT22;4943;52.550;13.462;2023-06-22T03:31:15;23.50;99.90
9808;DHT22;4943;52.550;13.462;2023-06-22T03:33:43;23.60;99.90
9808;DHT22;4943;52.550;13.462;2023-06-22T03:36:11;23.70;99.90
9808;DHT22;4943;52.550;13.462;2023-06-22T03:38:40;23.70;99.90
9808;DHT22;4943;52.550;13.462;2023-06-22T03:41:08;23.70;99.90
9808;DHT22;4943;52.550;13.462;2023-06-22T03:43:36;23.70;99.90
9808;DHT22;4943;52.550;13.462;2023-06-22T03:46:04;23.70;99.90
9808;DHT22;4943;52.550;13.462;2023-06-22T03:48:33;23.90;99.90
9808;DHT22;4943;52.550;13.462;2023-06-22T03:51:01;24.00;99.90
9808;DHT22;4943;52.550;13.462;2023-06-22T03:53:30;24.20;99.90
9808;DHT22;4943;52.550;13.462;2023-06-22T03:55:59;24.20;99.90
9808;DHT22;4943;52.550;13.462;2023-06-22T03:58:27;24.30;99.90
9808;DHT22;4943;52.550;13.462;2023-06-22T04:01:00;24.30;99.90
9808;DHT22;4943;52.550;13.462;2023-06-22T04:03:28;24.40;99.90
9808;DHT22;4943;52.550;13.462;2023-06-22T04:05:56;24.30;99.90
9808;DHT22;4943;52.550;13.462;2023-06-22T04:08:24;24.30;99.90
9808;DHT22;4943;52.550;13.462;2023-06-22T04:10:53;24.30;99.90
9808;DHT22;4943;52.550;13.462;2023-06-22T04:13:22;24.30;99.90
9808;DHT22;4943;52.550;13.462;2023-06-22T04:15:50;24.40;99.90
9808;DHT22;4943;52.550;13.462;2023-06-22T04:18:18;24.40;99.90
9808;DHT22;4943;52.550;13.462;2023-06-22T04:20:46;24.40;99.90
9808;DHT22;4943;52.550;13.462;2023-06-22T04:23:14;24.30;99.90
9808;DHT22;4943;52.550;13.462;2023-06-22T04:25:42;24.20;99.90
9808;DHT22;4943;52.550;13.462;2023-06-22T04:28:10;24.10;99.90
9808;DHT22;4943;52.550;13.462;2023-06-22T04:30:40;24.10;99.90
9808;DHT22;4943;52.550;13.462;2023-06-22T04:33:13;24.00;99.90
9808;DHT22;4943;52.550;13.462;2023-06-22T04:35:45;23.90;99.90
9808;DHT22;4943;52.550;13.462;2023-06-22T04:38:13;23.90;99.90
9808;DHT22;4943;52.550;13.462;2023-06-22T04:40:41;23.90;99.90
9808;DHT22;4943;52.550;13.462;2023-06-22T04:43:10;23.90;99.90
9808;DHT22;4943;52.550;13.462;2023-06-22T04:45:38;24.00;99.90
9808;DHT22;4943;52.550;13.462;2023-06-22T04:48:07;24.00;99.90
9808;DHT22;4943;52.550;13.462;2023-06-22T04:50:36;24.10;99.90
9808;DHT22;4943;52.550;13.462;2023-06-22T04:53:05;24.10;99.90
9808;DHT22;4943;52.550;13.462;2023-06-22T04:55:34;24.20;99.90
9808;DHT22;4943;52.550;13.462;2023-06-22T04:58:04;24.20;99.90
9808;DHT22;4943;52.550;13.462;2023-06-22T05:00:32;24.20;99.90
9808;DHT22;4943;52.550;13.462;2023-06-22T05:03:03;24.20;99.90
9808;DHT22;4943;52.550;13.462;2023-06-22T05:05:46;24.30;99.90
9808;DHT22;4943;52.550;13.462;2023-06-22T05:08:14;24.30;99.90
9808;DHT22;4943;52.550;13.462;2023-06-22T05:10:43;24.30;99.90
9808;DHT22;4943;52.550;13.462;2023-06-22T05:13:30;24.20;99.90
9808;DHT22;4943;52.550;13.462;2023-06-22T05:15:58;24.20;99.90
9808;DHT22;4943;52.550;13.462;2023-06-22T05:18:29;24.20;99.90
9808;DHT22;4943;52.550;13.462;2023-06-22T05:21:00;24.20;99.90
9808;DHT22;4943;52.550;13.462;2023-06-22T05:23:28;24.30;99.90
9808;DHT22;4943;52.550;13.462;2023-06-22T05:25:56;24.50;99.90
9808;DHT22;4943;52.550;13.462;2023-06-22T05:28:25;24.70;99.90
9808;DHT22;4943;52.550;13.462;2023-06-22T05:30:53;24.80;99.90
9808;DHT22;4943;52.550;13.462;2023-06-22T05:33:21;24.90;99.90
9808;DHT22;4943;52.550;13.462;2023-06-22T05:35:50;25.00;99.90
9808;DHT22;4943;52.550;13.462;2023-06-22T05:38:19;25.00;99.90
9808;DHT22;4943;52.550;13.462;2023-06-22T05:40:48;25.00;99.90
9808;DHT22;4943;52.550;13.462;2023-06-22T05:43:16;25.10;99.90
9808;DHT22;4943;52.550;13.462;2023-06-22T05:45:44;25.20;99.90
9808;DHT22;4943;52.550;13.462;2023-06-22T05:48:12;25.30;99.90
9808;DHT22;4943;52.550;13.462;2023-06-22T05:50:40;25.40;99.90
9808;DHT22;4943;52.550;13.462;2023-06-22T05:53:08;25.40;99.90
9808;DHT22;4943;52.550;13.462;2023-06-22T05:55:37;25.40;99.90
9808;DHT22;4943;52.550;13.462;2023-06-22T05:58:05;25.40;99.70
9808;DHT22;4943;52.550;13.462;2023-06-22T06:00:33;25.30;99.70
9808;DHT22;4943;52.550;13.462;2023-06-22T06:03:01;25.30;99.80
9808;DHT22;4943;52.550;13.462;2023-06-22T06:05:31;25.20;99.90
9808;DHT22;4943;52.550;13.462;2023-06-22T06:07:59;25.30;99.90
9808;DHT22;4943;52.550;13.462;2023-06-22T06:10:28;25.40;99.90
9808;DHT22;4943;52.550;13.462;2023-06-22T06:12:59;25.50;99.90
9808;DHT22;4943;52.550;13.462;2023-06-22T06:15:29;25.60;99.90
9808;DHT22;4943;52.550;13.462;2023-06-22T06:17:57;25.60;99.90
9808;DHT22;4943;52.550;13.462;2023-06-22T06:20:26;25.60;99.90
9808;DHT22;4943;52.550;13.462;2023-06-22T06:22:56;25.60;99.90
9808;DHT22;4943;52.550;13.462;2023-06-22T06:25:24;25.60;99.90
9808;DHT22;4943;52.550;13.462;2023-06-22T06:27:52;25.50;99.90
9808;DHT22;4943;52.550;13.462;2023-06-22T06:30:23;25.60;99.90
9808;DHT22;4943;52.550;13.462;2023-06-22T06:32:51;25.60;99.90
9808;DHT22;4943;52.550;13.462;2023-06-22T06:35:19;25.60;99.90
9808;DHT22;4943;52.550;13.462;2023-06-22T06:37:49;25.60;99.90
9808;DHT22;4943;52.550;13.462;2023-06-22T06:40:18;25.60;99.80
9808;DHT22;4943;52.550;13.462;2023-06-22T06:42:47;25.60;99.70
9808;DHT22;4943;52.550;13.462;2023-06-22T06:45:17;25.70;99.60
9808;DHT22;4943;52.550;13.462;2023-06-22T06:47:47;25.70;99.60
9808;DHT22;4943;52.550;13.462;2023-06-22T06:50:15;25.80;99.50
9808;DHT22;4943;52.550;13.462;2023-06-22T06:52:44;25.80;99.30
9808;DHT22;4943;52.550;13.462;2023-06-22T06:55:12;25.80;99.50
9808;DHT22;4943;52.550;13.462;2023-06-22T06:57:41;25.80;98.90
9808;DHT22;4943;52.550;13.462;2023-06-22T07:00:11;25.80;98.00
9808;DHT22;4943;52.550;13.462;2023-06-22T07:02:42;25.70;98.00
9808;DHT22;4943;52.550;13.462;2023-06-22T07:05:12;25.60;97.90
9808;DHT22;4943;52.550;13.462;2023-06-22T07:07:40;25.60;98.10
9808;DHT22;4943;52.550;13.462;2023-06-22T07:10:10;25.60;98.30
9808;DHT22;4943;52.550;13.462;2023-06-22T07:12:38;25.60;98.10
9808;DHT22;4943;52.550;13.462;2023-06-22T07:15:08;25.70;98.20
9808;DHT22;4943;52.550;13.462;2023-06-22T07:17:37;25.70;97.60
9808;DHT22;4943;52.550;13.462;2023-06-22T07:20:07;25.70;97.70
9808;DHT22;4943;52.550;13.462;2023-06-22T07:22:39;25.80;97.50
9808;DHT22;4943;52.550;13.462;2023-06-22T07:25:08;25.90;97.30
9808;DHT22;4943;52.550;13.462;2023-06-22T07:27:37;26.00;96.70
9808;DHT22;4943;52.550;13.462;2023-06-22T07:30:07;26.00;96.30
9808;DHT22;4943;52.550;13.462;2023-06-22T07:32:36;26.10;96.80
9808;DHT22;4943;52.550;13.462;2023-06-22T07:35:05;26.20;97.10
9808;DHT22;4943;52.550;13.462;2023-06-22T07:37:33;26.40;97.30
9808;DHT22;4943;52.550;13.462;2023-06-22T07:40:04;26.50;96.30
9808;DHT22;4943;52.550;13.462;2023-06-22T07:42:33;26.50;95.40
9808;DHT22;4943;52.550;13.462;2023-06-22T07:45:02;26.60;95.10
9808;DHT22;4943;52.550;13.462;2023-06-22T07:47:30;26.60;95.20
9808;DHT22;4943;52.550;13.462;2023-06-22T07:50:03;26.70;94.70
9808;DHT22;4943;52.550;13.462;2023-06-22T07:52:31;26.70;94.70
9808;DHT22;4943;52.550;13.462;2023-06-22T07:54:59;26.80;93.60
9808;DHT22;4943;52.550;13.462;2023-06-22T07:57:30;26.90;93.90
9808;DHT22;4943;52.550;13.462;2023-06-22T08:00:01;27.10;94.00
9808;DHT22;4943;52.550;13.462;2023-06-22T08:02:35;27.30;94.20
9808;DHT22;4943;52.550;13.462;2023-06-22T08:05:03;27.40;93.40
9808;DHT22;4943;52.550;13.462;2023-06-22T08:07:47;27.40;93.30
9808;DHT22;4943;52.550;13.462;2023-06-22T08:10:15;27.40;93.80
9808;DHT22;4943;52.550;13.462;2023-06-22T08:12:44;27.40;92.90
9808;DHT22;4943;52.550;13.462;2023-06-22T08:15:12;27.40;92.90
9808;DHT22;4943;52.550;13.462;2023-06-22T08:17:41;27.50;92.70
9808;DHT22;4943;52.550;13.462;2023-06-22T08:20:10;27.60;93.00
9808;DHT22;4943;52.550;13.462;2023-06-22T08:22:39;27.70;93.20
9808;DHT22;4943;52.550;13.462;2023-06-22T08:25:08;27.90;93.30
9808;DHT22;4943;52.550;13.462;2023-06-22T08:27:36;28.10;93.50
9808;DHT22;4943;52.550;13.462;2023-06-22T08:30:08;28.20;92.80
9808;DHT22;4943;52.550;13.462;2023-06-22T08:32:37;28.20;92.20
9808;DHT22;4943;52.550;13.462;2023-06-22T08:35:06;28.20;92.00
9808;DHT22;4943;52.550;13.462;2023-06-22T08:37:35;28.10;92.30
9808;DHT22;4943;52.550;13.462;2023-06-22T08:40:05;28.10;92.30
9808;DHT22;4943;52.550;13.462;2023-06-22T08:42:35;28.10;92.40
9808;DHT22;4943;52.550;13.462;2023-06-22T08:45:03;28.10;92.40
9808;DHT22;4943;52.550;13.462;2023-06-22T08:47:33;28.20;92.20
9808;DHT22;4943;52.550;13.462;2023-06-22T08:50:01;28.30;92.50
9808;DHT22;4943;52.550;13.462;2023-06-22T08:52:30;28.50;92.70
9808;DHT22;4943;52.550;13.462;2023-06-22T08:54:58;28.70;92.90
9808;DHT22;4943;52.550;13.462;2023-06-22T08:57:26;28.90;93.00
9808;DHT22;4943;52.550;13.462;2023-06-22T08:59:54;29.10;93.10
9808;DHT22;4943;52.550;13.462;2023-06-22T09:02:25;29.20;93.10
9808;DHT22;4943;52.550;13.462;2023-06-22T09:05:03;29.30;92.80
9808;DHT22;4943;52.550;13.462;2023-06-22T09:07:31;29.50;92.80
9808;DHT22;4943;52.550;13.462;2023-06-22T09:10:01;29.60;92.90
9808;DHT22;4943;52.550;13.462;2023-06-22T09:12:31;29.60;92.90
9808;DHT22;4943;52.550;13.462;2023-06-22T09:15:00;29.70;92.60
9808;DHT22;4943;52.550;13.462;2023-06-22T09:17:29;29.80;92.50
9808;DHT22;4943;52.550;13.462;2023-06-22T09:19:57;29.80;92.20
9808;DHT22;4943;52.550;13.462;2023-06-22T09:22:28;29.80;92.40
9808;DHT22;4943;52.550;13.462;2023-06-22T09:24:56;29.80;92.60
9808;DHT22;4943;52.550;13.462;2023-06-22T09:27:24;29.90;92.30
9808;DHT22;4943;52.550;13.462;2023-06-22T09:29:52;29.90;92.10
9808;DHT22;4943;52.550;13.462;2023-06-22T09:32:20;30.00;90.80
9808;DHT22;4943;52.550;13.462;2023-06-22T09:34:48;29.80;90.20
9808;DHT22;4943;52.550;13.462;2023-06-22T09:37:16;29.60;90.80
9808;DHT22;4943;52.550;13.462;2023-06-22T09:39:45;29.60;91.20
9808;DHT22;4943;52.550;13.462;2023-06-22T09:42:13;29.70;91.30
9808;DHT22;4943;52.550;13.462;2023-06-22T09:44:41;29.70;91.10
9808;DHT22;4943;52.550;13.462;2023-06-22T09:47:09;29.70;91.00
9808;DHT22;4943;52.550;13.462;2023-06-22T09:49:38;29.60;90.70
9808;DHT22;4943;52.550;13.462;2023-06-22T09:52:14;29.50;90.10
9808;DHT22;4943;52.550;13.462;2023-06-22T09:54:42;29.40;90.20
9808;DHT22;4943;52.550;13.462;2023-06-22T09:57:11;29.40;90.30
9808;DHT22;4943;52.550;13.462;2023-06-22T09:59:39;29.40;90.40
9808;DHT22;4943;52.550;13.462;2023-06-22T10:02:08;29.40;90.10
9808;DHT22;4943;52.550;13.462;2023-06-22T10:04:37;29.40;88.40
9808;DHT22;4943;52.550;13.462;2023-06-22T10:07:06;29.30;88.10
9808;DHT22;4943;52.550;13.462;2023-06-22T10:09:35;29.20;89.50
9808;DHT22;4943;52.550;13.462;2023-06-22T10:12:03;29.20;90.20
9808;DHT22;4943;52.550;13.462;2023-06-22T10:14:32;29.20;90.40
9808;DHT22;4943;52.550;13.462;2023-06-22T10:17:00;29.20;90.10
9808;DHT22;4943;52.550;13.462;2023-06-22T10:19:28;29.20;89.80
9808;DHT22;4943;52.550;13.462;2023-06-22T10:21:56;29.10;89.60
9808;DHT22;4943;52.550;13.462;2023-06-22T10:24:24;29.10;90.00
9808;DHT22;4943;52.550;13.462;2023-06-22T10:26:52;29.20;89.90
9808;DHT22;4943;52.550;13.462;2023-06-22T10:29:20;29.20;89.60
9808;DHT22;4943;52.550;13.462;2023-06-22T10:31:50;29.20;89.60
9808;DHT22;4943;52.550;13.462;2023-06-22T10:34:18;29.20;89.70
9808;DHT22;4943;52.550;13.462;2023-06-22T10:36:46;29.20;90.00
9808;DHT22;4943;52.550;13.462;2023-06-22T10:39:15;29.30;90.20
9808;DHT22;4943;52.550;13.462;2023-06-22T10:41:43;29.30;89.90
9808;DHT22;4943;52.550;13.462;2023-06-22T10:44:11;29.30;89.80
9808;DHT22;4943;52.550;13.462;2023-06-22T10:46:40;29.30;90.10
9808;DHT22;4943;52.550;13.462;2023-06-22T10:49:09;29.40;90.20
9808;DHT22;4943;52.550;13.462;2023-06-22T10:51:37;29.50;90.30
9808;DHT22;4943;52.550;13.462;2023-06-22T10:54:05;29.60;90.20
9808;DHT22;4943;52.550;13.462;2023-06-22T10:56:33;29.60;89.30
9808;DHT22;4943;52.550;13.462;2023-06-22T10:59:01;29.50;88.20
9808;DHT22;4943;52.550;13.462;2023-06-22T11:01:29;29.50;88.60
9808;DHT22;4943;52.550;13.462;2023-06-22T11:04:03;29.40;88.90
9808;DHT22;4943;52.550;13.462;2023-06-22T11:06:33;29.40;88.60
9808;DHT22;4943;52.550;13.462;2023-06-22T11:09:01;29.30;88.80
9808;DHT22;4943;52.550;13.462;2023-06-22T11:11:50;29.20;89.00
9808;DHT22;4943;52.550;13.462;2023-06-22T11:14:20;29.30;89.80
9808;DHT22;4943;52.550;13.462;2023-06-22T11:16:49;29.30;90.00
9808;DHT22;4943;52.550;13.462;2023-06-22T11:19:17;29.30;89.70
9808;DHT22;4943;52.550;13.462;2023-06-22T11:21:47;29.40;89.70
9808;DHT22;4943;52.550;13.462;2023-06-22T11:24:15;29.40;89.70
9808;DHT22;4943;52.550;13.462;2023-06-22T11:26:44;29.50;89.80
9808;DHT22;4943;52.550;13.462;2023-06-22T11:29:12;29.70;90.00
9808;DHT22;4943;52.550;13.462;2023-06-22T11:32:00;29.80;90.00
9808;DHT22;4943;52.550;13.462;2023-06-22T11:34:28;30.00;89.70
9808;DHT22;4943;52.550;13.462;2023-06-22T11:36:57;30.10;89.50
9808;DHT22;4943;52.550;13.462;2023-06-22T11:39:25;30.20;89.30
9808;DHT22;4943;52.550;13.462;2023-06-22T11:42:07;30.30;87.50
9808;DHT22;4943;52.550;13.462;2023-06-22T11:44:35;30.10;86.20
9808;DHT22;4943;52.550;13.462;2023-06-22T11:47:04;29.90;86.80
9808;DHT22;4943;52.550;13.462;2023-06-22T11:49:32;29.80;87.50
9808;DHT22;4943;52.550;13.462;2023-06-22T11:52:02;29.80;88.10
9808;DHT22;4943;52.550;13.462;2023-06-22T11:54:30;30.00;88.00
9808;DHT22;4943;52.550;13.462;2023-06-22T11:56:58;30.00;87.20
9808;DHT22;4943;52.550;13.462;2023-06-22T11:59:26;30.00;87.20
9808;DHT22;4943;52.550;13.462;2023-06-22T12:01:54;30.00;86.60
9808;DHT22;4943;52.550;13.462;2023-06-22T12:04:23;29.90;86.40
9808;DHT22;4943;52.550;13.462;2023-06-22T12:06:50;29.80;86.70
9808;DHT22;4943;52.550;13.462;2023-06-22T12:09:20;29.70;86.00
9808;DHT22;4943;52.550;13.462;2023-06-22T12:11:48;29.60;86.20
9808;DHT22;4943;52.550;13.462;2023-06-22T12:14:16;29.60;87.10
9808;DHT22;4943;52.550;13.462;2023-06-22T12:16:44;29.80;87.60
9808;DHT22;4943;52.550;13.462;2023-06-22T12:19:12;29.90;87.80
9808;DHT22;4943;52.550;13.462;2023-06-22T12:21:40;30.10;88.30
9808;DHT22;4943;52.550;13.462;2023-06-22T12:24:12;30.30;88.10
9808;DHT22;4943;52.550;13.462;2023-06-22T12:26:41;30.40;87.50
9808;DHT22;4943;52.550;13.462;2023-06-22T12:29:09;30.60;87.00
9808;DHT22;4943;52.550;13.462;2023-06-22T12:31:38;30.60;85.60
9808;DHT22;4943;52.550;13.462;2023-06-22T12:34:06;30.60;85.80
9808;DHT22;4943;52.550;13.462;2023-06-22T12:36:35;30.40;85.30
9808;DHT22;4943;52.550;13.462;2023-06-22T12:39:03;30.30;85.00
9808;DHT22;4943;52.550;13.462;2023-06-22T12:41:31;30.30;85.50
9808;DHT22;4943;52.550;13.462;2023-06-22T12:44:00;30.20;86.30
9808;DHT22;4943;52.550;13.462;2023-06-22T12:46:28;30.30;85.60
9808;DHT22;4943;52.550;13.462;2023-06-22T12:48:57;30.30;85.10
9808;DHT22;4943;52.550;13.462;2023-06-22T12:51:27;30.20;84.80
9808;DHT22;4943;52.550;13.462;2023-06-22T12:53:56;30.30;85.40
9808;DHT22;4943;52.550;13.462;2023-06-22T12:56:24;30.40;86.00
9808;DHT22;4943;52.550;13.462;2023-06-22T12:58:52;30.50;86.20
9808;DHT22;4943;52.550;13.462;2023-06-22T13:01:22;30.60;85.60
9808;DHT22;4943;52.550;13.462;2023-06-22T13:03:50;30.60;85.00
9808;DHT22;4943;52.550;13.462;2023-06-22T13:06:18;30.60;85.50
9808;DHT22;4943;52.550;13.462;2023-06-22T13:08:46;30.70;86.70
9808;DHT22;4943;52.550;13.462;2023-06-22T13:11:17;30.90;86.10
9808;DHT22;4943;52.550;13.462;2023-06-22T13:13:46;31.00;85.00
9808;DHT22;4943;52.550;13.462;2023-06-22T13:16:14;31.10;85.50
9808;DHT22;4943;52.550;13.462;2023-06-22T13:18:44;31.10;84.20
9808;DHT22;4943;52.550;13.462;2023-06-22T13:24:22;31.10;85.40
9808;DHT22;4943;52.550;13.462;2023-06-22T13:26:50;31.10;84.00
9808;DHT22;4943;52.550;13.462;2023-06-22T13:29:18;31.10;83.80
9808;DHT22;4943;52.550;13.462;2023-06-22T13:31:46;31.20;84.50
9808;DHT22;4943;52.550;13.462;2023-06-22T13:34:16;31.30;84.10
9808;DHT22;4943;52.550;13.462;2023-06-22T13:36:44;31.30;84.70
9808;DHT22;4943;52.550;13.462;2023-06-22T13:39:12;31.30;84.40
9808;DHT22;4943;52.550;13.462;2023-06-22T13:41:41;31.30;83.60
9808;DHT22;4943;52.550;13.462;2023-06-22T13:44:10;31.20;83.40
9808;DHT22;4943;52.550;13.462;2023-06-22T13:46:38;31.10;83.60
9808;DHT22;4943;52.550;13.462;2023-06-22T13:49:06;31.10;83.80
9808;DHT22;4943;52.550;13.462;2023-06-22T13:51:36;31.10;83.80
9808;DHT22;4943;52.550;13.462;2023-06-22T13:54:04;31.00;83.30
9808;DHT22;4943;52.550;13.462;2023-06-22T13:56:50;30.90;84.10
9808;DHT22;4943;52.550;13.462;2023-06-22T13:59:18;31.00;83.90
9808;DHT22;4943;52.550;13.462;2023-06-22T14:01:47;30.90;82.90
9808;DHT22;4943;52.550;13.462;2023-06-22T14:04:15;30.80;83.00
9808;DHT22;4943;52.550;13.462;2023-06-22T14:06:44;30.80;83.90
9808;DHT22;4943;52.550;13.462;2023-06-22T14:09:12;30.80;83.40
9808;DHT22;4943;52.550;13.462;2023-06-22T14:11:40;30.70;84.20
9808;DHT22;4943;52.550;13.462;2023-06-22T14:14:08;30.60;84.00
9808;DHT22;4943;52.550;13.462;2023-06-22T14:16:36;30.60;84.20
9808;DHT22;4943;52.550;13.462;2023-06-22T14:19:04;30.60;84.10
9808;DHT22;4943;52.550;13.462;2023-06-22T14:21:32;30.60;83.80
9808;DHT22;4943;52.550;13.462;2023-06-22T14:24:02;30.70;84.50
9808;DHT22;4943;52.550;13.462;2023-06-22T14:26:30;30.80;84.70
9808;DHT22;4943;52.550;13.462;2023-06-22T14:28:58;30.90;84.00
9808;DHT22;4943;52.550;13.462;2023-06-22T14:31:26;30.90;84.30
9808;DHT22;4943;52.550;13.462;2023-06-22T14:33:54;30.90;84.10
9808;DHT22;4943;52.550;13.462;2023-06-22T14:36:22;31.10;84.50
9808;DHT22;4943;52.550;13.462;2023-06-22T14:38:50;31.20;84.60
9808;DHT22;4943;52.550;13.462;2023-06-22T14:41:20;31.30;84.60
9808;DHT22;4943;52.550;13.462;2023-06-22T14:43:50;31.30;83.70
9808;DHT22;4943;52.550;13.462;2023-06-22T14:46:19;31.40;83.70
9808;DHT22;4943;52.550;13.462;2023-06-22T14:48:47;31.40;83.20
9808;DHT22;4943;52.550;13.462;2023-06-22T14:51:15;31.40;83.50
9808;DHT22;4943;52.550;13.462;2023-06-22T14:53:44;31.50;83.60
9808;DHT22;4943;52.550;13.462;2023-06-22T14:56:13;31.60;82.70
9808;DHT22;4943;52.550;13.462;2023-06-22T14:58:44;31.60;82.60
9808;DHT22;4943;52.550;13.462;2023-06-22T15:01:14;31.70;83.10
9808;DHT22;4943;52.550;13.462;2023-06-22T15:03:42;31.80;84.10
9808;DHT22;4943;52.550;13.462;2023-06-22T15:06:11;32.00;82.90
9808;DHT22;4943;52.550;13.462;2023-06-22T15:08:39;32.10;83.40
9808;DHT22;4943;52.550;13.462;2023-06-22T15:11:07;32.30;83.90
9808;DHT22;4943;52.550;13.462;2023-06-22T15:13:38;32.50;82.30
9808;DHT22;4943;52.550;13.462;2023-06-22T15:16:08;32.50;81.70
9808;DHT22;4943;52.550;13.462;2023-06-22T15:18:36;32.50;81.40
9808;DHT22;4943;52.550;13.462;2023-06-22T15:21:05;32.50;81.80
9808;DHT22;4943;52.550;13.462;2023-06-22T15:23:33;32.50;81.30
9808;DHT22;4943;52.550;13.462;2023-06-22T15:26:03;32.60;81.80
9808;DHT22;4943;52.550;13.462;2023-06-22T15:28:32;32.80;83.50
9808;DHT22;4943;52.550;13.462;2023-06-22T15:31:02;33.00;82.00
9808;DHT22;4943;52.550;13.462;2023-06-22T15:33:32;33.10;81.40
9808;DHT22;4943;52.550;13.462;2023-06-22T15:36:00;33.20;81.40
9808;DHT22;4943;52.550;13.462;2023-06-22T15:38:32;33.40;82.10
9808;DHT22;4943;52.550;13.462;2023-06-22T15:41:00;33.50;79.90
9808;DHT22;4943;52.550;13.462;2023-06-22T15:43:29;33.40;79.50
9808;DHT22;4943;52.550;13.462;2023-06-22T15:45:57;33.30;79.70
9808;DHT22;4943;52.550;13.462;2023-06-22T15:48:25;33.30;79.80
9808;DHT22;4943;52.550;13.462;2023-06-22T15:50:54;33.20;79.80
9808;DHT22;4943;52.550;13.462;2023-06-22T15:53:22;33.20;80.10
9808;DHT22;4943;52.550;13.462;2023-06-22T15:55:50;33.20;80.20
9808;DHT22;4943;52.550;13.462;2023-06-22T15:58:19;33.30;80.20
9808;DHT22;4943;52.550;13.462;2023-06-22T16:00:47;33.30;79.50